MSC Suez — HPMS — position and weather

sailwx.info

Track history (hours):
 
Tides and Currents Weather Stations Pressure Air Temp Water Temp Dewpoint Dewpoint Depression Visibility Wind Speed Wind Dir Waves Ship Positions

MSC Suez

Last reported at 2018-Sep-21 01:30 UTC. Time now 2018-Sep-21 01:49 UTC.
Position N 49°43' W 000°11'.

Length 237 m; draft 10.9 m.

Type: Ship. MMSI: 355289000.

Date/timePositionNaut miles runAvg speedWind from/ knotsBaromVisibWave heightAir tempDewpointWater temp
2018-Sep-21 01:30N 49°43' W 000°11'715.4
2018-Sep-21 01:03N 49°50' W 000°11'115.8
2018-Sep-21 01:00N 49°51' W 000°11'917.4
2018-Sep-21 00:30N 49°60' W 000°11'817.7
2018-Sep-21 00:03N 50°07' W 000°11'117.5
2018-Sep-21 00:00N 50°08' W 000°11'917.6
2018-Sep-20 23:30N 50°17' W 000°11'1017.3
2018-Sep-20 22:54N 50°27' W 000°05'717.8
2018-Sep-20 22:29N 50°29' E 000°06'817.7
2018-Sep-20 22:03N 50°32' E 000°17'117.7
2018-Sep-20 22:00N 50°32' E 000°18'917.3
2018-Sep-20 21:30N 50°35' E 000°31'716.2
2018-Sep-20 21:03N 50°39' E 000°41'117.0
2018-Sep-20 21:00N 50°40' E 000°42'817.0
2018-Sep-20 20:30N 50°45' E 000°52'816.7
2018-Sep-20 20:03N 50°50' E 001°01'116.9
2018-Sep-20 20:00N 50°51' E 001°02'816.9
2018-Sep-20 19:31N 50°56' E 001°12'817.0
2018-Sep-20 19:03N 51°01' E 001°22'117.2
2018-Sep-20 19:01N 51°02' E 001°23'917.8
2018-Sep-20 18:30N 51°07' E 001°34'818.3
2018-Sep-20 18:03N 51°15' E 001°39'118.8
2018-Sep-20 18:00N 51°16' E 001°40'1019.2
2018-Sep-20 17:30N 51°25' E 001°45'919.1
2018-Sep-20 17:03N 51°33' E 001°45'118.8
2018-Sep-20 17:00N 51°34' E 001°45'918.8
2018-Sep-20 16:30N 51°44' E 001°45'715.8
2018-Sep-20 16:03N 51°50' E 001°41'0 9.8
2018-Sep-20 16:00N 51°51' E 001°41'4 7.3
2018-Sep-20 15:31N 51°51' E 001°35'715.6
2018-Sep-20 15:03N 51°45' E 001°30'117.3
2018-Sep-20 15:00N 51°44' E 001°30'917.5
2018-Sep-20 14:30N 51°37' E 001°20'917.7
2018-Sep-20 14:00N 51°33' E 001°08'917.7
2018-Sep-20 13:31N 51°29' E 000°55'614.0
2018-Sep-20 13:03N 51°29' E 000°45'114.0
2018-Sep-20 13:00N 51°30' E 000°44'714.2
2018-Sep-20 12:31N 51°30' E 000°33'2 4.0
2018-Sep-20 12:04N 51°30' E 000°30'0 0.1
2018-Sep-20 12:01N 51°30' E 000°30'0 0.0
2018-Sep-20 11:31N 51°30' E 000°30'0 0.0
2018-Sep-20 11:04N 51°30' E 000°30'0 0.0
2018-Sep-20 11:01N 51°30' E 000°30'0 0.0
2018-Sep-20 10:30N 51°30' E 000°30'0 0.0
2018-Sep-20 10:04N 51°30' E 000°30'0 0.1
2018-Sep-20 10:00N 51°30' E 000°30'0 0.0
2018-Sep-20 09:30N 51°30' E 000°30'0 0.0
2018-Sep-20 09:03N 51°30' E 000°30'0 0.2
2018-Sep-20 09:00N 51°30' E 000°30'0 0.0
2018-Sep-20 08:30N 51°30' E 000°30'0 0.0
2018-Sep-20 08:04N 51°30' E 000°30'0 0.1
2018-Sep-20 08:01N 51°30' E 000°30'0 0.0
2018-Sep-20 07:30N 51°30' E 000°30'0 0.0
2018-Sep-20 07:03N 51°30' E 000°30'0 0.1
2018-Sep-20 07:01N 51°30' E 000°30'0 0.0
2018-Sep-20 06:31N 51°30' E 000°30'0 0.0
2018-Sep-20 06:03N 51°30' E 000°30'0 0.1
2018-Sep-20 06:00N 51°30' E 000°30'0 0.0
2018-Sep-20 05:31N 51°30' E 000°30'0 1.1
2018-Sep-20 05:04N 51°30' E 000°31'0 4.9
2018-Sep-20 05:01N 51°30' E 000°31'4 7.5
2018-Sep-20 04:30N 51°30' E 000°37'714.7
2018-Sep-20 04:03N 51°29' E 000°48'116.7
2018-Sep-20 04:00N 51°29' E 000°49'816.4
2018-Sep-20 03:30N 51°30' E 001°02'817.0
2018-Sep-20 03:03N 51°34' E 001°13'117.0
2018-Sep-20 03:00N 51°34' E 001°14'817.0
2018-Sep-20 02:30N 51°40' E 001°25'816.8
2018-Sep-20 02:03N 51°46' E 001°32'116.2
2018-Sep-20 02:00N 51°46' E 001°33'713.4
2018-Sep-20 01:30N 51°52' E 001°39'2 3.4
2018-Sep-20 01:02N 51°52' E 001°41'0 1.8
2018-Sep-20 00:59N 51°52' E 001°41'1 1.0
2018-Sep-20 00:29N 51°51' E 001°41'1 1.8
2018-Sep-20 00:03N 51°52' E 001°40'0 2.7
2018-Sep-20 00:00N 51°52' E 001°40'1 2.6
2018-Sep-19 23:30N 51°54' E 001°40'1 2.9
2018-Sep-19 23:02N 51°55' E 001°41'0 2.0
2018-Sep-19 22:59N 51°55' E 001°41'1 1.3
2018-Sep-19 22:29N 51°54' E 001°40'0 0.3
2018-Sep-19 22:02N 51°54' E 001°40'0 0.1
2018-Sep-19 21:59N 51°54' E 001°40'0 0.0
2018-Sep-19 21:29N 51°54' E 001°40'0 0.0
2018-Sep-19 21:02N 51°54' E 001°40'0 0.6
2018-Sep-19 20:59N 51°54' E 001°40'0 0.1
2018-Sep-19 20:29N 51°54' E 001°40'0 0.1
2018-Sep-19 20:02N 51°54' E 001°40'0 0.2
2018-Sep-19 19:59N 51°54' E 001°40'0 0.1
2018-Sep-19 19:29N 51°54' E 001°40'0 0.1
2018-Sep-19 19:02N 51°54' E 001°40'0 0.8
2018-Sep-19 18:59N 51°54' E 001°40'0 0.1
2018-Sep-19 18:29N 51°54' E 001°40'0 0.1
2018-Sep-19 18:02N 51°54' E 001°40'0 0.2
2018-Sep-19 17:59N 51°54' E 001°40'0 0.0
2018-Sep-19 17:29N 51°54' E 001°40'0 0.0
2018-Sep-19 17:02N 51°54' E 001°40'0 0.2
2018-Sep-19 16:59N 51°54' E 001°40'0 0.0
2018-Sep-19 16:29N 51°54' E 001°40'0 0.0
2018-Sep-19 16:02N 51°54' E 001°40'0 0.3
2018-Sep-19 15:59N 51°54' E 001°40'0 0.0
2018-Sep-19 15:29N 51°54' E 001°40'0 0.0
2018-Sep-19 15:02N 51°54' E 001°40'0 0.2
2018-Sep-19 14:59N 51°54' E 001°40'0 0.2
2018-Sep-19 14:29N 51°54' E 001°40'0 0.0
2018-Sep-19 13:29N 51°54' E 001°40'0 0.4
2018-Sep-19 13:03N 51°54' E 001°40'0 5.6
2018-Sep-19 13:00N 51°55' E 001°40'1 2.0
2018-Sep-19 12:30N 51°54' E 001°40'4 9.3
2018-Sep-19 12:03N 51°51' E 001°45'112.5
2018-Sep-19 12:00N 51°51' E 001°46'612.1
2018-Sep-19 11:30N 51°45' E 001°48'613.3
2018-Sep-19 11:03N 51°39' E 001°49'112.8
2018-Sep-19 11:00N 51°39' E 001°49'612.8
2018-Sep-19 10:30N 51°33' E 001°52'511.9
2018-Sep-19 10:03N 51°28' E 001°56'110.9
2018-Sep-19 10:00N 51°28' E 001°56'510.8
2018-Sep-19 09:30N 51°25' E 002°04'510.8
2018-Sep-19 09:03N 51°23' E 002°11'111.1
2018-Sep-19 09:00N 51°22' E 002°11'611.1
2018-Sep-19 08:31N 51°21' E 002°20'614.0
2018-Sep-19 08:03N 51°23' E 002°30'113.8
2018-Sep-19 07:59N 51°23' E 002°31'713.6
2018-Sep-19 07:29N 51°23' E 002°42'511.0
2018-Sep-19 06:59N 51°22' E 002°51'714.3
2018-Sep-19 06:30N 51°24' E 003°02'614.1
2018-Sep-19 06:03N 51°24' E 003°12'114.2
2018-Sep-19 06:00N 51°24' E 003°13'714.3
2018-Sep-19 05:30N 51°25' E 003°24'613.2
2018-Sep-19 05:03N 51°26' E 003°34'0 7.2
2018-Sep-19 05:00N 51°26' E 003°34'4 7.9
2018-Sep-19 04:30N 51°26' E 003°41'613.1
2018-Sep-19 04:03N 51°22' E 003°46'115.5
2018-Sep-19 04:00N 51°21' E 003°47'713.6
2018-Sep-19 03:30N 51°24' E 003°57'3 7.4
2018-Sep-19 03:03N 51°23' E 004°02'113.3
2018-Sep-19 03:00N 51°23' E 004°03'612.5
2018-Sep-19 02:30N 51°22' E 004°13'510.6
2018-Sep-19 02:03N 51°18' E 004°16'0 7.9
2018-Sep-19 02:01N 51°18' E 004°16'1 1.7
2018-Sep-19 01:29N 51°17' E 004°15'0 0.0
2018-Sep-19 01:02N 51°17' E 004°15'0 0.1
2018-Sep-19 00:59N 51°17' E 004°15'0 0.0
2018-Sep-19 00:29N 51°17' E 004°15'0 0.0
2018-Sep-19 00:02N 51°17' E 004°15'0 0.1
2018-Sep-18 23:59N 51°17' E 004°15'0 0.0
2018-Sep-18 23:29N 51°17' E 004°15'0 0.0
2018-Sep-18 23:02N 51°17' E 004°15'0 0.0
2018-Sep-18 22:59N 51°17' E 004°15'0 0.0
2018-Sep-18 22:29N 51°17' E 004°15'0 0.0
2018-Sep-18 22:02N 51°17' E 004°15'0 0.1
2018-Sep-18 21:59N 51°17' E 004°15'0 0.0
2018-Sep-18 21:29N 51°17' E 004°15'0 0.0
2018-Sep-18 21:02N 51°17' E 004°15'0 0.1
2018-Sep-18 20:59N 51°17' E 004°15'0 0.0
2018-Sep-18 20:29N 51°17' E 004°15'0 0.0
2018-Sep-18 20:02N 51°17' E 004°15'0 0.2
2018-Sep-18 19:59N 51°17' E 004°15'0 0.0
2018-Sep-18 19:29N 51°17' E 004°15'0 0.0
2018-Sep-18 19:02N 51°17' E 004°15'0 0.1
2018-Sep-18 18:59N 51°17' E 004°15'0 0.0
2018-Sep-18 18:29N 51°17' E 004°15'0 0.0
2018-Sep-18 18:02N 51°17' E 004°15'0 0.1
2018-Sep-18 17:59N 51°17' E 004°15'0 0.0
2018-Sep-18 17:29N 51°17' E 004°15'0 0.0
2018-Sep-18 17:02N 51°17' E 004°15'0 0.0
2018-Sep-18 16:59N 51°17' E 004°15'0 0.0
2018-Sep-18 16:29N 51°17' E 004°15'0 0.0
2018-Sep-18 16:02N 51°17' E 004°15'0 0.0
2018-Sep-18 15:59N 51°17' E 004°15'0 0.0
2018-Sep-18 15:29N 51°17' E 004°15'0 0.0
2018-Sep-18 15:02N 51°17' E 004°15'0 0.0
2018-Sep-18 14:59N 51°17' E 004°15'0 0.0
2018-Sep-18 14:29N 51°17' E 004°15'0 0.0
2018-Sep-18 13:59N 51°17' E 004°15'0 0.0
2018-Sep-18 13:29N 51°17' E 004°15'0 0.0
2018-Sep-18 13:02N 51°17' E 004°15'0 0.1
2018-Sep-18 12:59N 51°17' E 004°15'0 0.0
2018-Sep-18 12:29N 51°17' E 004°15'0 0.0
2018-Sep-18 12:02N 51°17' E 004°15'0 0.1
2018-Sep-18 11:59N 51°17' E 004°15'0 0.0
2018-Sep-18 11:26N 51°17' E 004°15'0 0.0
2018-Sep-18 11:02N 51°17' E 004°15'0 0.0
2018-Sep-18 10:59N 51°17' E 004°15'0 0.0
2018-Sep-18 10:29N 51°17' E 004°15'0 0.0
2018-Sep-18 10:02N 51°17' E 004°15'0 0.1
2018-Sep-18 09:59N 51°17' E 004°15'0 0.0
2018-Sep-18 09:29N 51°17' E 004°15'0 0.0
2018-Sep-18 09:02N 51°17' E 004°15'0 0.1
2018-Sep-18 08:59N 51°17' E 004°15'0 0.0
2018-Sep-18 08:29N 51°17' E 004°15'0 0.0
2018-Sep-18 08:02N 51°17' E 004°15'0 0.1
2018-Sep-18 07:59N 51°17' E 004°15'0 0.0
2018-Sep-18 07:26N 51°17' E 004°15'0 0.0
2018-Sep-18 07:02N 51°17' E 004°15'0 0.0
2018-Sep-18 06:59N 51°17' E 004°15'0 0.0
2018-Sep-18 06:29N 51°17' E 004°15'0 0.0
2018-Sep-18 06:02N 51°17' E 004°15'0 0.0
2018-Sep-18 05:59N 51°17' E 004°15'0 0.0
2018-Sep-18 05:29N 51°17' E 004°15'0 0.0
2018-Sep-18 05:02N 51°17' E 004°15'0 0.1
2018-Sep-18 04:59N 51°17' E 004°15'0 0.0
2018-Sep-18 04:29N 51°17' E 004°15'0 0.0
2018-Sep-18 04:02N 51°17' E 004°15'0 0.0
2018-Sep-18 03:56N 51°17' E 004°15'0 0.0
2018-Sep-18 03:29N 51°17' E 004°15'0 0.0
2018-Sep-18 03:02N 51°17' E 004°15'0 0.0
2018-Sep-18 02:59N 51°17' E 004°15'0 0.0
2018-Sep-18 02:29N 51°17' E 004°15'0 0.0
2018-Sep-18 02:02N 51°17' E 004°15'0 0.0
2018-Sep-18 01:59N 51°17' E 004°15'0 0.0
2018-Sep-18 01:29N 51°17' E 004°15'0 0.0
2018-Sep-18 01:02N 51°17' E 004°15'0 0.2
2018-Sep-18 00:59N 51°17' E 004°15'0 0.0
2018-Sep-18 00:26N 51°17' E 004°15'0 0.0
2018-Sep-18 00:02N 51°17' E 004°15'0 0.0
2018-Sep-17 23:59N 51°17' E 004°15'0 0.0
2018-Sep-17 23:29N 51°17' E 004°15'0 0.0
2018-Sep-17 22:59N 51°17' E 004°15'0 0.0
2018-Sep-17 22:29N 51°17' E 004°15'0 0.0
2018-Sep-17 22:02N 51°17' E 004°15'0 0.1
2018-Sep-17 21:59N 51°17' E 004°15'0 0.0
2018-Sep-17 21:29N 51°17' E 004°15'0 0.0
2018-Sep-17 21:02N 51°17' E 004°15'0 0.0
2018-Sep-17 20:59N 51°17' E 004°15'0 0.0
2018-Sep-17 20:29N 51°17' E 004°15'0 0.0
2018-Sep-17 20:02N 51°17' E 004°15'0 0.0
2018-Sep-17 19:59N 51°17' E 004°15'0 0.0
2018-Sep-17 19:29N 51°17' E 004°15'0 0.0
2018-Sep-17 19:02N 51°17' E 004°15'0 0.1
2018-Sep-17 18:59N 51°17' E 004°15'0 0.0
2018-Sep-17 18:29N 51°17' E 004°15'0 0.0
2018-Sep-17 18:02N 51°17' E 004°15'0 0.1
2018-Sep-17 17:59N 51°17' E 004°15'0 0.0
2018-Sep-17 17:26N 51°17' E 004°15'0 0.0
2018-Sep-17 17:02N 51°17' E 004°15'0 0.1
2018-Sep-17 16:59N 51°17' E 004°15'0 0.0
2018-Sep-17 16:26N 51°17' E 004°15'0 0.0
2018-Sep-17 16:02N 51°17' E 004°15'0 0.1
2018-Sep-17 16:00N 51°17' E 004°15'0 0.6
2018-Sep-17 15:30N 51°17' E 004°15'1 3.1
2018-Sep-17 15:03N 51°18' E 004°16'0 3.3
2018-Sep-17 15:00N 51°19' E 004°16'4 7.2
2018-Sep-17 14:31N 51°22' E 004°13'510.9
2018-Sep-17 14:00N 51°22' E 004°05'510.5
2018-Sep-17 13:31N 51°25' E 003°58'613.7
2018-Sep-17 13:03N 51°21' E 003°51'111.0
2018-Sep-17 13:00N 51°21' E 003°50'510.2
2018-Sep-17 12:30N 51°23' E 003°43'410.0
2018-Sep-17 12:04N 51°26' E 003°38'110.3
2018-Sep-17 12:00N 51°26' E 003°37'713.7
2018-Sep-17 11:30N 51°25' E 003°26'714.9
2018-Sep-17 11:03N 51°25' E 003°15'114.7
2018-Sep-17 11:00N 51°25' E 003°14'815.1
2018-Sep-17 10:31N 51°25' E 003°02'511.4
2018-Sep-17 10:04N 51°30' E 003°03'116.3
2018-Sep-17 10:00N 51°30' E 003°03'815.8
2018-Sep-17 09:30N 51°37' E 003°10'715.8
2018-Sep-17 09:03N 51°44' E 003°13'114.9
2018-Sep-17 09:00N 51°45' E 003°14'510.1
2018-Sep-17 08:30N 51°49' E 003°17'2 3.3
2018-Sep-17 08:03N 51°50' E 003°14'0 1.4
2018-Sep-17 08:00N 51°50' E 003°14'1 1.5
2018-Sep-17 07:28N 51°50' E 003°13'1 1.7
2018-Sep-17 07:03N 51°49' E 003°12'0 1.5
2018-Sep-17 07:00N 51°49' E 003°12'1 1.4
2018-Sep-17 06:30N 51°48' E 003°12'2 3.9
2018-Sep-17 06:02N 51°50' E 003°13'0 1.9
2018-Sep-17 05:55N 51°50' E 003°13'1 1.2
2018-Sep-17 05:27N 51°49' E 003°12'1 3.2
2018-Sep-17 05:03N 51°50' E 003°14'0 3.8
2018-Sep-17 05:00N 51°49' E 003°15'1 1.3
2018-Sep-17 04:30N 51°49' E 003°14'0 0.1
2018-Sep-17 04:01N 51°49' E 003°14'0 2.1
2018-Sep-17 03:58N 51°49' E 003°14'2 4.7
2018-Sep-17 03:30N 51°50' E 003°18'4 9.2
2018-Sep-17 03:03N 51°54' E 003°19'112.6
2018-Sep-17 03:01N 51°55' E 003°19'712.8
2018-Sep-17 02:29N 52°01' E 003°20'612.9
2018-Sep-17 02:03N 52°07' E 003°22'112.9
2018-Sep-17 02:00N 52°07' E 003°22'713.0
2018-Sep-17 01:30N 52°14' E 003°23'612.8
2018-Sep-17 01:03N 52°19' E 003°25'112.8
2018-Sep-17 00:59N 52°20' E 003°25'612.8
2018-Sep-17 00:30N 52°26' E 003°27'612.8
2018-Sep-17 00:03N 52°32' E 003°29'112.6
2018-Sep-17 00:00N 52°33' E 003°29'612.0
2018-Sep-16 23:30N 52°38' E 003°33'611.9
2018-Sep-16 22:59N 52°43' E 003°39'611.6
2018-Sep-16 22:30N 52°47' E 003°44'611.2
2018-Sep-16 22:01N 52°52' E 003°50'010.7
2018-Sep-16 22:00N 52°52' E 003°50'510.9
2018-Sep-16 21:30N 52°56' E 003°56'612.6
2018-Sep-16 21:00N 53°00' E 004°04'813.7
2018-Sep-16 20:26N 53°05' E 004°14'713.7
2018-Sep-16 19:57N 53°09' E 004°23'613.1
2018-Sep-16 19:30N 53°14' E 004°27'614.2
2018-Sep-16 19:03N 53°20' E 004°31'114.4
2018-Sep-16 19:00N 53°21' E 004°31'814.8
2018-Sep-16 18:27N 53°29' E 004°35'615.0
2018-Sep-16 18:03N 53°35' E 004°38'115.0
2018-Sep-16 17:58N 53°36' E 004°39'914.9
2018-Sep-16 17:21N 53°44' E 004°45'714.7
2018-Sep-16 16:52N 53°51' E 004°49'4014.3
2018-Sep-16 14:03N 54°28' E 005°18'1014.0
2018-Sep-16 13:20N 54°37' E 005°26'714.0
2018-Sep-16 12:51N 54°42' E 005°32'10913.1
2018-Sep-16 04:30N 56°15' E 007°12'715.4
2018-Sep-16 04:02N 56°22' E 007°19'115.4
2018-Sep-16 03:58N 56°22' E 007°20'4315.3
2018-Sep-16 01:09N 56°59' E 008°01'214.9
2018-Sep-16 01:01N 57°01' E 008°03'014.9
2018-Sep-16 00:59N 57°01' E 008°04'714.7
2018-Sep-16 00:30N 57°07' E 008°10'714.7
2018-Sep-16 00:03N 57°13' E 008°17'114.7
2018-Sep-16 00:00N 57°13' E 008°18'714.4
2018-Sep-15 23:30N 57°19' E 008°26'614.5
2018-Sep-15 23:03N 57°23' E 008°36'114.4
2018-Sep-15 23:00N 57°23' E 008°37'714.5
2018-Sep-15 22:30N 57°28' E 008°47'714.6
2018-Sep-15 22:03N 57°31' E 008°58'114.6
2018-Sep-15 22:00N 57°32' E 008°59'714.9
2018-Sep-15 21:30N 57°36' E 009°10'614.5
2018-Sep-15 21:03N 57°40' E 009°21'114.8
2018-Sep-15 21:00N 57°40' E 009°22'714.6
2018-Sep-15 20:30N 57°42' E 009°35'714.9
2018-Sep-15 20:02N 57°43' E 009°48'114.9
2018-Sep-15 19:59N 57°43' E 009°49'714.8
2018-Sep-15 19:29N 57°45' E 010°02'614.1
2018-Sep-15 19:03N 57°47' E 010°14'114.1
2018-Sep-15 18:59N 57°47' E 010°15'713.8
2018-Sep-15 18:29N 57°48' E 010°28'613.8
2018-Sep-15 18:03N 57°49' E 010°39'113.5
2018-Sep-15 17:59N 57°49' E 010°41'613.1
2018-Sep-15 17:30N 57°46' E 010°51'613.8
2018-Sep-15 17:04N 57°42' E 010°60'113.4
2018-Sep-15 17:01N 57°41' E 011°00'713.4
2018-Sep-15 16:30N 57°37' E 011°09'613.5
2018-Sep-15 16:03N 57°33' E 011°18'114.0
2018-Sep-15 16:00N 57°32' E 011°19'713.8
2018-Sep-15 15:30N 57°27' E 011°27'714.3
2018-Sep-15 15:00N 57°20' E 011°32'1414.9
2018-Sep-15 14:03N 57°07' E 011°40'115.3
2018-Sep-15 14:00N 57°06' E 011°40'815.1
2018-Sep-15 13:30N 56°59' E 011°45'714.6
2018-Sep-15 13:03N 56°53' E 011°49'114.3
2018-Sep-15 13:00N 56°52' E 011°49'9411.9
2018-Sep-15 05:02N 55°21' E 011°02'010.6
2018-Sep-15 05:00N 55°21' E 011°02'610.3
2018-Sep-15 04:28N 55°16' E 011°05'4 9.8
2018-Sep-15 04:03N 55°12' E 011°05'111.7
2018-Sep-15 04:00N 55°11' E 011°05'510.7
2018-Sep-15 03:30N 55°06' E 011°03'510.8
2018-Sep-15 03:03N 55°01' E 011°02'111.0
2018-Sep-15 03:00N 55°00' E 011°02'510.7
2018-Sep-15 02:30N 54°56' E 010°56'510.8
2018-Sep-15 02:03N 54°52' E 010°53'111.4
2018-Sep-15 02:00N 54°51' E 010°53'611.3
2018-Sep-15 01:30N 54°45' E 010°53'4 9.6
2018-Sep-15 01:03N 54°41' E 010°56'110.6
2018-Sep-15 01:00N 54°41' E 010°56'510.7
2018-Sep-15 00:30N 54°38' E 011°04'510.8
2018-Sep-15 00:03N 54°36' E 011°11'111.5
2018-Sep-15 00:00N 54°35' E 011°12'714.2
2018-Sep-14 23:31N 54°32' E 011°23'614.3
2018-Sep-14 23:03N 54°30' E 011°33'114.0
2018-Sep-14 23:01N 54°29' E 011°34'714.3
2018-Sep-14 22:30N 54°26' E 011°46'715.0
2018-Sep-14 22:03N 54°26' E 011°57'115.0
2018-Sep-14 21:58N 54°26' E 011°60'614.2
2018-Sep-14 21:31N 54°27' E 012°11'714.9
2018-Sep-14 21:03N 54°33' E 012°13'116.1
2018-Sep-14 21:00N 54°34' E 012°14'1315.0
2018-Sep-14 20:10N 54°42' E 012°30'715.7
2018-Sep-14 19:43N 54°46' E 012°41'415.7
2018-Sep-14 19:28N 54°48' E 012°47'1015.6
2018-Sep-14 18:49N 54°51' E 013°03'515.6
2018-Sep-14 18:29N 54°53' E 013°11'715.6
2018-Sep-14 18:02N 54°55' E 013°23'115.3
2018-Sep-14 17:59N 54°56' E 013°24'715.0
2018-Sep-14 17:31N 54°58' E 013°36'715.2
2018-Sep-14 17:03N 55°01' E 013°47'115.5
2018-Sep-14 17:00N 55°01' E 013°48'815.4
2018-Sep-14 16:31N 55°03' E 014°01'714.9
2018-Sep-14 16:03N 55°08' E 014°10'115.1
2018-Sep-14 16:01N 55°08' E 014°10'715.0
2018-Sep-14 15:31N 55°14' E 014°19'715.1
2018-Sep-14 15:04N 55°19' E 014°26'114.8
2018-Sep-14 15:01N 55°20' E 014°27'714.7
2018-Sep-14 14:30N 55°26' E 014°35'714.8
2018-Sep-14 14:01N 55°30' E 014°46'714.9
2018-Sep-14 13:31N 55°33' E 014°58'714.8
2018-Sep-14 13:04N 55°36' E 015°08'114.7
2018-Sep-14 13:01N 55°37' E 015°09'714.9
2018-Sep-14 12:31N 55°41' E 015°21'714.7
2018-Sep-14 12:04N 55°44' E 015°31'114.8
2018-Sep-14 12:01N 55°44' E 015°32'815.0
2018-Sep-14 11:30N 55°48' E 015°44'715.1
2018-Sep-14 11:03N 55°52' E 015°54'115.2
2018-Sep-14 11:00N 55°52' E 015°55'714.8
2018-Sep-14 10:31N 55°56' E 016°06'714.9
2018-Sep-14 10:04N 55°59' E 016°17'115.1
2018-Sep-14 10:01N 55°59' E 016°18'713.5
2018-Sep-14 09:31N 56°03' E 016°29'511.2
2018-Sep-14 09:04N 56°05' E 016°36'111.3
2018-Sep-14 09:01N 56°06' E 016°37'611.4
2018-Sep-14 08:31N 56°09' E 016°45'511.2
2018-Sep-14 08:03N 56°12' E 016°53'111.3
2018-Sep-14 08:00N 56°12' E 016°54'611.4
2018-Sep-14 07:30N 56°16' E 017°02'511.2
2018-Sep-14 07:03N 56°19' E 017°09'111.2
2018-Sep-14 07:00N 56°19' E 017°10'815.5
2018-Sep-14 06:30N 56°24' E 017°21'817.2
2018-Sep-14 06:03N 56°28' E 017°32'117.1
2018-Sep-14 06:00N 56°29' E 017°34'815.8
2018-Sep-14 05:29N 56°34' E 017°45'715.5
2018-Sep-14 05:03N 56°38' E 017°55'1115.5
2018-Sep-14 04:21N 56°44' E 018°11'615.8
2018-Sep-14 03:58N 56°48' E 018°20'17315.6
2018-Sep-13 16:54N 59°07' E 021°33'614.9
2018-Sep-13 16:30N 59°11' E 021°41'715.2
2018-Sep-13 16:02N 59°16' E 021°52'015.0
2018-Sep-13 16:00N 59°16' E 021°53'1915.2
2018-Sep-13 14:44N 59°27' E 022°23'1015.0
2018-Sep-13 14:03N 59°32' E 022°41'215.2
2018-Sep-13 13:57N 59°32' E 022°45'915.2
2018-Sep-13 13:21N 59°35' E 023°01'515.2
2018-Sep-13 13:03N 59°36' E 023°10'115.1
2018-Sep-13 13:00N 59°36' E 023°12'815.2
2018-Sep-13 12:30N 59°38' E 023°26'715.1
2018-Sep-13 12:03N 59°40' E 023°39'415.1
2018-Sep-13 11:49N 59°41' E 023°46'1015.0
2018-Sep-13 11:08N 59°44' E 024°05'414.8
2018-Sep-13 10:54N 59°45' E 024°12'614.7
2018-Sep-13 10:30N 59°46' E 024°23'614.6
2018-Sep-13 10:03N 59°48' E 024°36'114.0
2018-Sep-13 10:00N 59°48' E 024°37'714.7
2018-Sep-13 09:30N 59°50' E 024°51'714.5
2018-Sep-13 09:03N 59°51' E 025°04'114.6
2018-Sep-13 09:00N 59°51' E 025°05'714.5
2018-Sep-13 08:30N 59°52' E 025°19'714.5
2018-Sep-13 08:03N 59°54' E 025°32'114.6
2018-Sep-13 08:00N 59°54' E 025°34'714.7
2018-Sep-13 07:30N 59°55' E 025°48'1214.9
2018-Sep-13 06:41N 59°59' E 026°12'315.1
2018-Sep-13 06:29N 59°60' E 026°17'614.2
2018-Sep-13 06:03N 60°01' E 026°29'114.6
2018-Sep-13 06:00N 60°01' E 026°31'815.3
2018-Sep-13 05:29N 60°00' E 026°47'817.6
2018-Sep-13 05:01N 59°59' E 027°03'0 0.5
2018-Sep-13 04:57N 59°59' E 027°03'715.1
2018-Sep-13 04:30N 60°03' E 027°15'714.6
2018-Sep-13 04:03N 60°06' E 027°26'114.7
2018-Sep-13 04:00N 60°07' E 027°27'714.4
2018-Sep-13 03:30N 60°10' E 027°40'713.8
2018-Sep-13 03:02N 60°11' E 027°53'115.8
2018-Sep-13 02:59N 60°11' E 027°54'714.4
2018-Sep-13 02:29N 60°09' E 028°08'713.9
2018-Sep-13 02:00N 60°06' E 028°21'612.2
2018-Sep-13 01:30N 60°03' E 028°31'715.0
2018-Sep-13 01:03N 60°03' E 028°44'115.4
2018-Sep-13 01:00N 60°03' E 028°46'714.7
2018-Sep-13 00:30N 60°02' E 029°01'714.7
2018-Sep-13 00:03N 60°02' E 029°14'114.7
2018-Sep-13 00:00N 60°02' E 029°15'714.5
2018-Sep-12 23:30N 60°02' E 029°30'511.2
2018-Sep-12 23:02N 59°60' E 029°40'0 9.4
2018-Sep-12 23:00N 59°60' E 029°40'4 8.2
2018-Sep-12 22:30N 59°58' E 029°48'510.5
2018-Sep-12 22:03N 59°56' E 029°56'010.8
2018-Sep-12 22:00N 59°56' E 029°57'510.8
2018-Sep-12 21:30N 59°54' E 030°07'3 5.2
2018-Sep-12 21:01N 59°53' E 030°12'010.1
2018-Sep-12 21:00N 59°53' E 030°12'0 0.2
2018-Sep-12 19:52N 59°52' E 030°12'0 0.0
2018-Sep-12 18:40N 59°52' E 030°12'0 0.0
2018-Sep-12 18:25N 59°52' E 030°12'0 0.0
2018-Sep-12 18:01N 59°52' E 030°12'0 0.0
2018-Sep-12 17:52N 59°52' E 030°12'0 0.0
2018-Sep-12 17:19N 59°52' E 030°12'0 0.0
2018-Sep-12 16:52N 59°52' E 030°12'0 0.0
2018-Sep-12 16:28N 59°52' E 030°12'0 0.0
2018-Sep-12 16:01N 59°52' E 030°12'0 0.1
2018-Sep-12 15:58N 59°52' E 030°12'0 0.0
2018-Sep-12 15:28N 59°52' E 030°12'0 0.0
2018-Sep-12 14:58N 59°52' E 030°12'0 0.0
2018-Sep-12 14:28N 59°52' E 030°12'0 0.0
2018-Sep-12 13:58N 59°52' E 030°12'0 0.0
2018-Sep-12 13:28N 59°52' E 030°12'0 0.0
2018-Sep-12 12:49N 59°52' E 030°12'0 0.0
2018-Sep-12 12:28N 59°52' E 030°12'0 0.0
2018-Sep-12 11:58N 59°52' E 030°12'0 0.0
2018-Sep-12 10:40N 59°52' E 030°12'0 0.0
2018-Sep-12 10:28N 59°52' E 030°12'0 0.0
2018-Sep-12 09:13N 59°52' E 030°12'0 0.0
2018-Sep-12 08:43N 59°52' E 030°12'0 0.0
2018-Sep-12 08:29N 59°52' E 030°12'0 0.0
2018-Sep-12 07:49N 59°52' E 030°12'0 0.0
2018-Sep-12 07:28N 59°52' E 030°12'0 0.0
2018-Sep-12 06:52N 59°52' E 030°12'0 0.0
2018-Sep-12 06:22N 59°52' E 030°12'0 0.0
2018-Sep-12 05:58N 59°52' E 030°12'0 0.0
2018-Sep-12 05:28N 59°52' E 030°12'0 0.0
2018-Sep-12 05:01N 59°52' E 030°12'0 0.1
2018-Sep-12 04:58N 59°52' E 030°12'0 0.0
2018-Sep-12 04:25N 59°52' E 030°12'0 0.0
2018-Sep-12 04:01N 59°52' E 030°12'0 0.1
2018-Sep-12 03:58N 59°52' E 030°12'0 0.0
2018-Sep-12 03:28N 59°52' E 030°12'0 0.0
2018-Sep-12 02:55N 59°52' E 030°12'0 0.0
2018-Sep-12 02:28N 59°52' E 030°12'0 0.0
2018-Sep-12 01:58N 59°52' E 030°12'0 0.0
2018-Sep-12 01:28N 59°52' E 030°12'0 0.0
2018-Sep-12 00:55N 59°52' E 030°12'0 0.0
2018-Sep-12 00:28N 59°52' E 030°12'0 0.0
2018-Sep-12 00:01N 59°52' E 030°12'0 0.0
2018-Sep-11 23:49N 59°52' E 030°12'0 0.0
2018-Sep-11 23:28N 59°52' E 030°12'0 0.0
2018-Sep-11 23:01N 59°52' E 030°12'0 0.2
2018-Sep-11 22:58N 59°52' E 030°12'0 0.0
2018-Sep-11 22:28N 59°52' E 030°12'0 0.0
2018-Sep-11 22:01N 59°52' E 030°12'0 0.1
2018-Sep-11 21:58N 59°52' E 030°12'0 0.0
2018-Sep-11 20:01N 59°52' E 030°12'0 0.0
2018-Sep-11 19:49N 59°52' E 030°12'0 0.0
2018-Sep-11 19:22N 59°52' E 030°12'0 0.0
2018-Sep-11 18:50N 59°52' E 030°12'0 0.0
2018-Sep-11 18:16N 59°52' E 030°12'0 0.0
2018-Sep-11 17:52N 59°52' E 030°12'0 0.0
2018-Sep-11 17:28N 59°52' E 030°12'0 0.0
2018-Sep-11 16:58N 59°52' E 030°12'0 0.0
2018-Sep-11 16:25N 59°52' E 030°12'0 0.0
2018-Sep-11 16:01N 59°52' E 030°12'0 0.0
2018-Sep-11 15:58N 59°52' E 030°12'0 0.0
2018-Sep-11 15:25N 59°52' E 030°12'0 0.0
2018-Sep-11 15:01N 59°52' E 030°12'0 0.1
2018-Sep-11 14:58N 59°52' E 030°12'0 0.0
2018-Sep-11 14:28N 59°52' E 030°12'2 0.1
2018-Sep-11 03:24N 59°53' E 030°10'2 5.8
2018-Sep-11 03:03N 59°54' E 030°06'0 6.3
2018-Sep-11 03:00N 59°54' E 030°05'4 8.7
2018-Sep-11 02:30N 59°56' E 029°57'  
Track history (hours):
 
Tides and Currents Weather Stations Pressure Air Temp Water Temp Dewpoint Dewpoint Depression Visibility Wind Speed Wind Dir Waves Ship Positions

MSC Suez

Last reported at 2018-Sep-21 01:30 UTC. Time now 2018-Sep-21 01:49 UTC.
Position N 49°43' W 000°11'.

Length 237 m; draft 10.9 m.

Type: Ship. MMSI: 355289000.

Date/timePositionNaut miles runAvg speedWind from/ knotsBaromVisibWave heightAir tempDewpointWater temp
2018-Sep-21 01:30N 49°43' W 000°11'715.4
2018-Sep-21 01:03N 49°50' W 000°11'115.8
2018-Sep-21 01:00N 49°51' W 000°11'917.4
2018-Sep-21 00:30N 49°60' W 000°11'817.7
2018-Sep-21 00:03N 50°07' W 000°11'117.5
2018-Sep-21 00:00N 50°08' W 000°11'917.6
2018-Sep-20 23:30N 50°17' W 000°11'1017.3
2018-Sep-20 22:54N 50°27' W 000°05'717.8
2018-Sep-20 22:29N 50°29' E 000°06'817.7
2018-Sep-20 22:03N 50°32' E 000°17'117.7
2018-Sep-20 22:00N 50°32' E 000°18'917.3
2018-Sep-20 21:30N 50°35' E 000°31'716.2
2018-Sep-20 21:03N 50°39' E 000°41'117.0
2018-Sep-20 21:00N 50°40' E 000°42'817.0
2018-Sep-20 20:30N 50°45' E 000°52'816.7
2018-Sep-20 20:03N 50°50' E 001°01'116.9
2018-Sep-20 20:00N 50°51' E 001°02'816.9
2018-Sep-20 19:31N 50°56' E 001°12'817.0
2018-Sep-20 19:03N 51°01' E 001°22'117.2
2018-Sep-20 19:01N 51°02' E 001°23'917.8
2018-Sep-20 18:30N 51°07' E 001°34'818.3
2018-Sep-20 18:03N 51°15' E 001°39'118.8
2018-Sep-20 18:00N 51°16' E 001°40'1019.2
2018-Sep-20 17:30N 51°25' E 001°45'919.1
2018-Sep-20 17:03N 51°33' E 001°45'118.8
2018-Sep-20 17:00N 51°34' E 001°45'918.8
2018-Sep-20 16:30N 51°44' E 001°45'715.8
2018-Sep-20 16:03N 51°50' E 001°41'0 9.8
2018-Sep-20 16:00N 51°51' E 001°41'4 7.3
2018-Sep-20 15:31N 51°51' E 001°35'715.6
2018-Sep-20 15:03N 51°45' E 001°30'117.3
2018-Sep-20 15:00N 51°44' E 001°30'917.5
2018-Sep-20 14:30N 51°37' E 001°20'917.7
2018-Sep-20 14:00N 51°33' E 001°08'917.7
2018-Sep-20 13:31N 51°29' E 000°55'614.0
2018-Sep-20 13:03N 51°29' E 000°45'114.0
2018-Sep-20 13:00N 51°30' E 000°44'714.2
2018-Sep-20 12:31N 51°30' E 000°33'2 4.0
2018-Sep-20 12:04N 51°30' E 000°30'0 0.1
2018-Sep-20 12:01N 51°30' E 000°30'0 0.0
2018-Sep-20 11:31N 51°30' E 000°30'0 0.0
2018-Sep-20 11:04N 51°30' E 000°30'0 0.0
2018-Sep-20 11:01N 51°30' E 000°30'0 0.0
2018-Sep-20 10:30N 51°30' E 000°30'0 0.0
2018-Sep-20 10:04N 51°30' E 000°30'0 0.1
2018-Sep-20 10:00N 51°30' E 000°30'0 0.0
2018-Sep-20 09:30N 51°30' E 000°30'0 0.0
2018-Sep-20 09:03N 51°30' E 000°30'0 0.2
2018-Sep-20 09:00N 51°30' E 000°30'0 0.0
2018-Sep-20 08:30N 51°30' E 000°30'0 0.0
2018-Sep-20 08:04N 51°30' E 000°30'0 0.1
2018-Sep-20 08:01N 51°30' E 000°30'0 0.0
2018-Sep-20 07:30N 51°30' E 000°30'0 0.0
2018-Sep-20 07:03N 51°30' E 000°30'0 0.1
2018-Sep-20 07:01N 51°30' E 000°30'0 0.0
2018-Sep-20 06:31N 51°30' E 000°30'0 0.0
2018-Sep-20 06:03N 51°30' E 000°30'0 0.1
2018-Sep-20 06:00N 51°30' E 000°30'0 0.0
2018-Sep-20 05:31N 51°30' E 000°30'0 1.1
2018-Sep-20 05:04N 51°30' E 000°31'0 4.9
2018-Sep-20 05:01N 51°30' E 000°31'4 7.5
2018-Sep-20 04:30N 51°30' E 000°37'714.7
2018-Sep-20 04:03N 51°29' E 000°48'116.7
2018-Sep-20 04:00N 51°29' E 000°49'816.4
2018-Sep-20 03:30N 51°30' E 001°02'817.0
2018-Sep-20 03:03N 51°34' E 001°13'117.0
2018-Sep-20 03:00N 51°34' E 001°14'817.0
2018-Sep-20 02:30N 51°40' E 001°25'816.8
2018-Sep-20 02:03N 51°46' E 001°32'116.2
2018-Sep-20 02:00N 51°46' E 001°33'713.4
2018-Sep-20 01:30N 51°52' E 001°39'2 3.4
2018-Sep-20 01:02N 51°52' E 001°41'0 1.8
2018-Sep-20 00:59N 51°52' E 001°41'1 1.0
2018-Sep-20 00:29N 51°51' E 001°41'1 1.8
2018-Sep-20 00:03N 51°52' E 001°40'0 2.7
2018-Sep-20 00:00N 51°52' E 001°40'1 2.6
2018-Sep-19 23:30N 51°54' E 001°40'1 2.9
2018-Sep-19 23:02N 51°55' E 001°41'0 2.0
2018-Sep-19 22:59N 51°55' E 001°41'1 1.3
2018-Sep-19 22:29N 51°54' E 001°40'0 0.3
2018-Sep-19 22:02N 51°54' E 001°40'0 0.1
2018-Sep-19 21:59N 51°54' E 001°40'0 0.0
2018-Sep-19 21:29N 51°54' E 001°40'0 0.0
2018-Sep-19 21:02N 51°54' E 001°40'0 0.6
2018-Sep-19 20:59N 51°54' E 001°40'0 0.1
2018-Sep-19 20:29N 51°54' E 001°40'0 0.1
2018-Sep-19 20:02N 51°54' E 001°40'0 0.2
2018-Sep-19 19:59N 51°54' E 001°40'0 0.1
2018-Sep-19 19:29N 51°54' E 001°40'0 0.1
2018-Sep-19 19:02N 51°54' E 001°40'0 0.8
2018-Sep-19 18:59N 51°54' E 001°40'0 0.1
2018-Sep-19 18:29N 51°54' E 001°40'0 0.1
2018-Sep-19 18:02N 51°54' E 001°40'0 0.2
2018-Sep-19 17:59N 51°54' E 001°40'0 0.0
2018-Sep-19 17:29N 51°54' E 001°40'0 0.0
2018-Sep-19 17:02N 51°54' E 001°40'0 0.2
2018-Sep-19 16:59N 51°54' E 001°40'0 0.0
2018-Sep-19 16:29N 51°54' E 001°40'0 0.0
2018-Sep-19 16:02N 51°54' E 001°40'0 0.3
2018-Sep-19 15:59N 51°54' E 001°40'0 0.0
2018-Sep-19 15:29N 51°54' E 001°40'0 0.0
2018-Sep-19 15:02N 51°54' E 001°40'0 0.2
2018-Sep-19 14:59N 51°54' E 001°40'0 0.2
2018-Sep-19 14:29N 51°54' E 001°40'0 0.0
2018-Sep-19 13:29N 51°54' E 001°40'0 0.4
2018-Sep-19 13:03N 51°54' E 001°40'0 5.6
2018-Sep-19 13:00N 51°55' E 001°40'1 2.0
2018-Sep-19 12:30N 51°54' E 001°40'4 9.3
2018-Sep-19 12:03N 51°51' E 001°45'112.5
2018-Sep-19 12:00N 51°51' E 001°46'612.1
2018-Sep-19 11:30N 51°45' E 001°48'613.3
2018-Sep-19 11:03N 51°39' E 001°49'112.8
2018-Sep-19 11:00N 51°39' E 001°49'612.8
2018-Sep-19 10:30N 51°33' E 001°52'511.9
2018-Sep-19 10:03N 51°28' E 001°56'110.9
2018-Sep-19 10:00N 51°28' E 001°56'510.8
2018-Sep-19 09:30N 51°25' E 002°04'510.8
2018-Sep-19 09:03N 51°23' E 002°11'111.1
2018-Sep-19 09:00N 51°22' E 002°11'611.1
2018-Sep-19 08:31N 51°21' E 002°20'614.0
2018-Sep-19 08:03N 51°23' E 002°30'113.8
2018-Sep-19 07:59N 51°23' E 002°31'713.6
2018-Sep-19 07:29N 51°23' E 002°42'511.0
2018-Sep-19 06:59N 51°22' E 002°51'714.3
2018-Sep-19 06:30N 51°24' E 003°02'614.1
2018-Sep-19 06:03N 51°24' E 003°12'114.2
2018-Sep-19 06:00N 51°24' E 003°13'714.3
2018-Sep-19 05:30N 51°25' E 003°24'613.2
2018-Sep-19 05:03N 51°26' E 003°34'0 7.2
2018-Sep-19 05:00N 51°26' E 003°34'4 7.9
2018-Sep-19 04:30N 51°26' E 003°41'613.1
2018-Sep-19 04:03N 51°22' E 003°46'115.5
2018-Sep-19 04:00N 51°21' E 003°47'713.6
2018-Sep-19 03:30N 51°24' E 003°57'3 7.4
2018-Sep-19 03:03N 51°23' E 004°02'113.3
2018-Sep-19 03:00N 51°23' E 004°03'612.5
2018-Sep-19 02:30N 51°22' E 004°13'510.6
2018-Sep-19 02:03N 51°18' E 004°16'0 7.9
2018-Sep-19 02:01N 51°18' E 004°16'1 1.7
2018-Sep-19 01:29N 51°17' E 004°15'0 0.0
2018-Sep-19 01:02N 51°17' E 004°15'0 0.1
2018-Sep-19 00:59N 51°17' E 004°15'0 0.0
2018-Sep-19 00:29N 51°17' E 004°15'0 0.0
2018-Sep-19 00:02N 51°17' E 004°15'0 0.1
2018-Sep-18 23:59N 51°17' E 004°15'0 0.0
2018-Sep-18 23:29N 51°17' E 004°15'0 0.0
2018-Sep-18 23:02N 51°17' E 004°15'0 0.0
2018-Sep-18 22:59N 51°17' E 004°15'0 0.0
2018-Sep-18 22:29N 51°17' E 004°15'0 0.0
2018-Sep-18 22:02N 51°17' E 004°15'0 0.1
2018-Sep-18 21:59N 51°17' E 004°15'0 0.0
2018-Sep-18 21:29N 51°17' E 004°15'0 0.0
2018-Sep-18 21:02N 51°17' E 004°15'0 0.1
2018-Sep-18 20:59N 51°17' E 004°15'0 0.0
2018-Sep-18 20:29N 51°17' E 004°15'0 0.0
2018-Sep-18 20:02N 51°17' E 004°15'0 0.2
2018-Sep-18 19:59N 51°17' E 004°15'0 0.0
2018-Sep-18 19:29N 51°17' E 004°15'0 0.0
2018-Sep-18 19:02N 51°17' E 004°15'0 0.1
2018-Sep-18 18:59N 51°17' E 004°15'0 0.0
2018-Sep-18 18:29N 51°17' E 004°15'0 0.0
2018-Sep-18 18:02N 51°17' E 004°15'0 0.1
2018-Sep-18 17:59N 51°17' E 004°15'0 0.0
2018-Sep-18 17:29N 51°17' E 004°15'0 0.0
2018-Sep-18 17:02N 51°17' E 004°15'0 0.0
2018-Sep-18 16:59N 51°17' E 004°15'0 0.0
2018-Sep-18 16:29N 51°17' E 004°15'0 0.0
2018-Sep-18 16:02N 51°17' E 004°15'0 0.0
2018-Sep-18 15:59N 51°17' E 004°15'0 0.0
2018-Sep-18 15:29N 51°17' E 004°15'0 0.0
2018-Sep-18 15:02N 51°17' E 004°15'0 0.0
2018-Sep-18 14:59N 51°17' E 004°15'0 0.0
2018-Sep-18 14:29N 51°17' E 004°15'0 0.0
2018-Sep-18 13:59N 51°17' E 004°15'0 0.0
2018-Sep-18 13:29N 51°17' E 004°15'0 0.0
2018-Sep-18 13:02N 51°17' E 004°15'0 0.1
2018-Sep-18 12:59N 51°17' E 004°15'0 0.0
2018-Sep-18 12:29N 51°17' E 004°15'0 0.0
2018-Sep-18 12:02N 51°17' E 004°15'0 0.1
2018-Sep-18 11:59N 51°17' E 004°15'0 0.0
2018-Sep-18 11:26N 51°17' E 004°15'0 0.0
2018-Sep-18 11:02N 51°17' E 004°15'0 0.0
2018-Sep-18 10:59N 51°17' E 004°15'0 0.0
2018-Sep-18 10:29N 51°17' E 004°15'0 0.0
2018-Sep-18 10:02N 51°17' E 004°15'0 0.1
2018-Sep-18 09:59N 51°17' E 004°15'0 0.0
2018-Sep-18 09:29N 51°17' E 004°15'0 0.0
2018-Sep-18 09:02N 51°17' E 004°15'0 0.1
2018-Sep-18 08:59N 51°17' E 004°15'0 0.0
2018-Sep-18 08:29N 51°17' E 004°15'0 0.0
2018-Sep-18 08:02N 51°17' E 004°15'0 0.1
2018-Sep-18 07:59N 51°17' E 004°15'0 0.0
2018-Sep-18 07:26N 51°17' E 004°15'0 0.0
2018-Sep-18 07:02N 51°17' E 004°15'0 0.0
2018-Sep-18 06:59N 51°17' E 004°15'0 0.0
2018-Sep-18 06:29N 51°17' E 004°15'0 0.0
2018-Sep-18 06:02N 51°17' E 004°15'0 0.0
2018-Sep-18 05:59N 51°17' E 004°15'0 0.0
2018-Sep-18 05:29N 51°17' E 004°15'0 0.0
2018-Sep-18 05:02N 51°17' E 004°15'0 0.1
2018-Sep-18 04:59N 51°17' E 004°15'0 0.0
2018-Sep-18 04:29N 51°17' E 004°15'0 0.0
2018-Sep-18 04:02N 51°17' E 004°15'0 0.0
2018-Sep-18 03:56N 51°17' E 004°15'0 0.0
2018-Sep-18 03:29N 51°17' E 004°15'0 0.0
2018-Sep-18 03:02N 51°17' E 004°15'0 0.0
2018-Sep-18 02:59N 51°17' E 004°15'0 0.0
2018-Sep-18 02:29N 51°17' E 004°15'0 0.0
2018-Sep-18 02:02N 51°17' E 004°15'0 0.0
2018-Sep-18 01:59N 51°17' E 004°15'0 0.0
2018-Sep-18 01:29N 51°17' E 004°15'0 0.0
2018-Sep-18 01:02N 51°17' E 004°15'0 0.2
2018-Sep-18 00:59N 51°17' E 004°15'0 0.0
2018-Sep-18 00:26N 51°17' E 004°15'0 0.0
2018-Sep-18 00:02N 51°17' E 004°15'0 0.0
2018-Sep-17 23:59N 51°17' E 004°15'0 0.0
2018-Sep-17 23:29N 51°17' E 004°15'0 0.0
2018-Sep-17 22:59N 51°17' E 004°15'0 0.0
2018-Sep-17 22:29N 51°17' E 004°15'0 0.0
2018-Sep-17 22:02N 51°17' E 004°15'0 0.1
2018-Sep-17 21:59N 51°17' E 004°15'0 0.0
2018-Sep-17 21:29N 51°17' E 004°15'0 0.0
2018-Sep-17 21:02N 51°17' E 004°15'0 0.0
2018-Sep-17 20:59N 51°17' E 004°15'0 0.0
2018-Sep-17 20:29N 51°17' E 004°15'0 0.0
2018-Sep-17 20:02N 51°17' E 004°15'0 0.0
2018-Sep-17 19:59N 51°17' E 004°15'0 0.0
2018-Sep-17 19:29N 51°17' E 004°15'0 0.0
2018-Sep-17 19:02N 51°17' E 004°15'0 0.1
2018-Sep-17 18:59N 51°17' E 004°15'0 0.0
2018-Sep-17 18:29N 51°17' E 004°15'0 0.0
2018-Sep-17 18:02N 51°17' E 004°15'0 0.1
2018-Sep-17 17:59N 51°17' E 004°15'0 0.0
2018-Sep-17 17:26N 51°17' E 004°15'0 0.0
2018-Sep-17 17:02N 51°17' E 004°15'0 0.1
2018-Sep-17 16:59N 51°17' E 004°15'0 0.0
2018-Sep-17 16:26N 51°17' E 004°15'0 0.0
2018-Sep-17 16:02N 51°17' E 004°15'0 0.1
2018-Sep-17 16:00N 51°17' E 004°15'0 0.6
2018-Sep-17 15:30N 51°17' E 004°15'1 3.1
2018-Sep-17 15:03N 51°18' E 004°16'0 3.3
2018-Sep-17 15:00N 51°19' E 004°16'4 7.2
2018-Sep-17 14:31N 51°22' E 004°13'510.9
2018-Sep-17 14:00N 51°22' E 004°05'510.5
2018-Sep-17 13:31N 51°25' E 003°58'613.7
2018-Sep-17 13:03N 51°21' E 003°51'111.0
2018-Sep-17 13:00N 51°21' E 003°50'510.2
2018-Sep-17 12:30N 51°23' E 003°43'410.0
2018-Sep-17 12:04N 51°26' E 003°38'110.3
2018-Sep-17 12:00N 51°26' E 003°37'713.7
2018-Sep-17 11:30N 51°25' E 003°26'714.9
2018-Sep-17 11:03N 51°25' E 003°15'114.7
2018-Sep-17 11:00N 51°25' E 003°14'815.1
2018-Sep-17 10:31N 51°25' E 003°02'511.4
2018-Sep-17 10:04N 51°30' E 003°03'116.3
2018-Sep-17 10:00N 51°30' E 003°03'815.8
2018-Sep-17 09:30N 51°37' E 003°10'715.8
2018-Sep-17 09:03N 51°44' E 003°13'114.9
2018-Sep-17 09:00N 51°45' E 003°14'510.1
2018-Sep-17 08:30N 51°49' E 003°17'2 3.3
2018-Sep-17 08:03N 51°50' E 003°14'0 1.4
2018-Sep-17 08:00N 51°50' E 003°14'1 1.5
2018-Sep-17 07:28N 51°50' E 003°13'1 1.7
2018-Sep-17 07:03N 51°49' E 003°12'0 1.5
2018-Sep-17 07:00N 51°49' E 003°12'1 1.4
2018-Sep-17 06:30N 51°48' E 003°12'2 3.9
2018-Sep-17 06:02N 51°50' E 003°13'0 1.9
2018-Sep-17 05:55N 51°50' E 003°13'1 1.2
2018-Sep-17 05:27N 51°49' E 003°12'1 3.2
2018-Sep-17 05:03N 51°50' E 003°14'0 3.8
2018-Sep-17 05:00N 51°49' E 003°15'1 1.3
2018-Sep-17 04:30N 51°49' E 003°14'0 0.1
2018-Sep-17 04:01N 51°49' E 003°14'0 2.1
2018-Sep-17 03:58N 51°49' E 003°14'2 4.7
2018-Sep-17 03:30N 51°50' E 003°18'4 9.2
2018-Sep-17 03:03N 51°54' E 003°19'112.6
2018-Sep-17 03:01N 51°55' E 003°19'712.8
2018-Sep-17 02:29N 52°01' E 003°20'612.9
2018-Sep-17 02:03N 52°07' E 003°22'112.9
2018-Sep-17 02:00N 52°07' E 003°22'713.0
2018-Sep-17 01:30N 52°14' E 003°23'612.8
2018-Sep-17 01:03N 52°19' E 003°25'112.8
2018-Sep-17 00:59N 52°20' E 003°25'612.8
2018-Sep-17 00:30N 52°26' E 003°27'612.8
2018-Sep-17 00:03N 52°32' E 003°29'112.6
2018-Sep-17 00:00N 52°33' E 003°29'612.0
2018-Sep-16 23:30N 52°38' E 003°33'611.9
2018-Sep-16 22:59N 52°43' E 003°39'611.6
2018-Sep-16 22:30N 52°47' E 003°44'611.2
2018-Sep-16 22:01N 52°52' E 003°50'010.7
2018-Sep-16 22:00N 52°52' E 003°50'510.9
2018-Sep-16 21:30N 52°56' E 003°56'612.6
2018-Sep-16 21:00N 53°00' E 004°04'813.7
2018-Sep-16 20:26N 53°05' E 004°14'713.7
2018-Sep-16 19:57N 53°09' E 004°23'613.1
2018-Sep-16 19:30N 53°14' E 004°27'614.2
2018-Sep-16 19:03N 53°20' E 004°31'114.4
2018-Sep-16 19:00N 53°21' E 004°31'814.8
2018-Sep-16 18:27N 53°29' E 004°35'615.0
2018-Sep-16 18:03N 53°35' E 004°38'115.0
2018-Sep-16 17:58N 53°36' E 004°39'914.9
2018-Sep-16 17:21N 53°44' E 004°45'714.7
2018-Sep-16 16:52N 53°51' E 004°49'4014.3
2018-Sep-16 14:03N 54°28' E 005°18'1014.0
2018-Sep-16 13:20N 54°37' E 005°26'714.0
2018-Sep-16 12:51N 54°42' E 005°32'10913.1
2018-Sep-16 04:30N 56°15' E 007°12'715.4
2018-Sep-16 04:02N 56°22' E 007°19'115.4
2018-Sep-16 03:58N 56°22' E 007°20'4315.3
2018-Sep-16 01:09N 56°59' E 008°01'214.9
2018-Sep-16 01:01N 57°01' E 008°03'014.9
2018-Sep-16 00:59N 57°01' E 008°04'714.7
2018-Sep-16 00:30N 57°07' E 008°10'714.7
2018-Sep-16 00:03N 57°13' E 008°17'114.7
2018-Sep-16 00:00N 57°13' E 008°18'714.4
2018-Sep-15 23:30N 57°19' E 008°26'614.5
2018-Sep-15 23:03N 57°23' E 008°36'114.4
2018-Sep-15 23:00N 57°23' E 008°37'714.5
2018-Sep-15 22:30N 57°28' E 008°47'714.6
2018-Sep-15 22:03N 57°31' E 008°58'114.6
2018-Sep-15 22:00N 57°32' E 008°59'714.9
2018-Sep-15 21:30N 57°36' E 009°10'614.5
2018-Sep-15 21:03N 57°40' E 009°21'114.8
2018-Sep-15 21:00N 57°40' E 009°22'714.6
2018-Sep-15 20:30N 57°42' E 009°35'714.9
2018-Sep-15 20:02N 57°43' E 009°48'114.9
2018-Sep-15 19:59N 57°43' E 009°49'714.8
2018-Sep-15 19:29N 57°45' E 010°02'614.1
2018-Sep-15 19:03N 57°47' E 010°14'114.1
2018-Sep-15 18:59N 57°47' E 010°15'713.8
2018-Sep-15 18:29N 57°48' E 010°28'613.8
2018-Sep-15 18:03N 57°49' E 010°39'113.5
2018-Sep-15 17:59N 57°49' E 010°41'613.1
2018-Sep-15 17:30N 57°46' E 010°51'613.8
2018-Sep-15 17:04N 57°42' E 010°60'113.4
2018-Sep-15 17:01N 57°41' E 011°00'713.4
2018-Sep-15 16:30N 57°37' E 011°09'613.5
2018-Sep-15 16:03N 57°33' E 011°18'114.0
2018-Sep-15 16:00N 57°32' E 011°19'713.8
2018-Sep-15 15:30N 57°27' E 011°27'714.3
2018-Sep-15 15:00N 57°20' E 011°32'1414.9
2018-Sep-15 14:03N 57°07' E 011°40'115.3
2018-Sep-15 14:00N 57°06' E 011°40'815.1
2018-Sep-15 13:30N 56°59' E 011°45'714.6
2018-Sep-15 13:03N 56°53' E 011°49'114.3
2018-Sep-15 13:00N 56°52' E 011°49'9411.9
2018-Sep-15 05:02N 55°21' E 011°02'010.6
2018-Sep-15 05:00N 55°21' E 011°02'610.3
2018-Sep-15 04:28N 55°16' E 011°05'4 9.8
2018-Sep-15 04:03N 55°12' E 011°05'111.7
2018-Sep-15 04:00N 55°11' E 011°05'510.7
2018-Sep-15 03:30N 55°06' E 011°03'510.8
2018-Sep-15 03:03N 55°01' E 011°02'111.0
2018-Sep-15 03:00N 55°00' E 011°02'510.7
2018-Sep-15 02:30N 54°56' E 010°56'510.8
2018-Sep-15 02:03N 54°52' E 010°53'111.4
2018-Sep-15 02:00N 54°51' E 010°53'611.3
2018-Sep-15 01:30N 54°45' E 010°53'4 9.6
2018-Sep-15 01:03N 54°41' E 010°56'110.6
2018-Sep-15 01:00N 54°41' E 010°56'510.7
2018-Sep-15 00:30N 54°38' E 011°04'510.8
2018-Sep-15 00:03N 54°36' E 011°11'111.5
2018-Sep-15 00:00N 54°35' E 011°12'714.2
2018-Sep-14 23:31N 54°32' E 011°23'614.3
2018-Sep-14 23:03N 54°30' E 011°33'114.0
2018-Sep-14 23:01N 54°29' E 011°34'714.3
2018-Sep-14 22:30N 54°26' E 011°46'715.0
2018-Sep-14 22:03N 54°26' E 011°57'115.0
2018-Sep-14 21:58N 54°26' E 011°60'614.2
2018-Sep-14 21:31N 54°27' E 012°11'714.9
2018-Sep-14 21:03N 54°33' E 012°13'116.1
2018-Sep-14 21:00N 54°34' E 012°14'1315.0
2018-Sep-14 20:10N 54°42' E 012°30'715.7
2018-Sep-14 19:43N 54°46' E 012°41'415.7
2018-Sep-14 19:28N 54°48' E 012°47'1015.6
2018-Sep-14 18:49N 54°51' E 013°03'515.6
2018-Sep-14 18:29N 54°53' E 013°11'715.6
2018-Sep-14 18:02N 54°55' E 013°23'115.3
2018-Sep-14 17:59N 54°56' E 013°24'715.0
2018-Sep-14 17:31N 54°58' E 013°36'715.2
2018-Sep-14 17:03N 55°01' E 013°47'115.5
2018-Sep-14 17:00N 55°01' E 013°48'815.4
2018-Sep-14 16:31N 55°03' E 014°01'714.9
2018-Sep-14 16:03N 55°08' E 014°10'115.1
2018-Sep-14 16:01N 55°08' E 014°10'715.0
2018-Sep-14 15:31N 55°14' E 014°19'715.1
2018-Sep-14 15:04N 55°19' E 014°26'114.8
2018-Sep-14 15:01N 55°20' E 014°27'714.7
2018-Sep-14 14:30N 55°26' E 014°35'714.8
2018-Sep-14 14:01N 55°30' E 014°46'714.9
2018-Sep-14 13:31N 55°33' E 014°58'714.8
2018-Sep-14 13:04N 55°36' E 015°08'114.7
2018-Sep-14 13:01N 55°37' E 015°09'714.9
2018-Sep-14 12:31N 55°41' E 015°21'714.7
2018-Sep-14 12:04N 55°44' E 015°31'114.8
2018-Sep-14 12:01N 55°44' E 015°32'815.0
2018-Sep-14 11:30N 55°48' E 015°44'715.1
2018-Sep-14 11:03N 55°52' E 015°54'115.2
2018-Sep-14 11:00N 55°52' E 015°55'714.8
2018-Sep-14 10:31N 55°56' E 016°06'714.9
2018-Sep-14 10:04N 55°59' E 016°17'115.1
2018-Sep-14 10:01N 55°59' E 016°18'713.5
2018-Sep-14 09:31N 56°03' E 016°29'511.2
2018-Sep-14 09:04N 56°05' E 016°36'111.3
2018-Sep-14 09:01N 56°06' E 016°37'611.4
2018-Sep-14 08:31N 56°09' E 016°45'511.2
2018-Sep-14 08:03N 56°12' E 016°53'111.3
2018-Sep-14 08:00N 56°12' E 016°54'611.4
2018-Sep-14 07:30N 56°16' E 017°02'511.2
2018-Sep-14 07:03N 56°19' E 017°09'111.2
2018-Sep-14 07:00N 56°19' E 017°10'815.5
2018-Sep-14 06:30N 56°24' E 017°21'817.2
2018-Sep-14 06:03N 56°28' E 017°32'117.1
2018-Sep-14 06:00N 56°29' E 017°34'815.8
2018-Sep-14 05:29N 56°34' E 017°45'715.5
2018-Sep-14 05:03N 56°38' E 017°55'1115.5
2018-Sep-14 04:21N 56°44' E 018°11'615.8
2018-Sep-14 03:58N 56°48' E 018°20'17315.6
2018-Sep-13 16:54N 59°07' E 021°33'614.9
2018-Sep-13 16:30N 59°11' E 021°41'715.2
2018-Sep-13 16:02N 59°16' E 021°52'015.0
2018-Sep-13 16:00N 59°16' E 021°53'1915.2
2018-Sep-13 14:44N 59°27' E 022°23'1015.0
2018-Sep-13 14:03N 59°32' E 022°41'215.2
2018-Sep-13 13:57N 59°32' E 022°45'915.2
2018-Sep-13 13:21N 59°35' E 023°01'515.2
2018-Sep-13 13:03N 59°36' E 023°10'115.1
2018-Sep-13 13:00N 59°36' E 023°12'815.2
2018-Sep-13 12:30N 59°38' E 023°26'715.1
2018-Sep-13 12:03N 59°40' E 023°39'415.1
2018-Sep-13 11:49N 59°41' E 023°46'1015.0
2018-Sep-13 11:08N 59°44' E 024°05'414.8
2018-Sep-13 10:54N 59°45' E 024°12'614.7
2018-Sep-13 10:30N 59°46' E 024°23'614.6
2018-Sep-13 10:03N 59°48' E 024°36'114.0
2018-Sep-13 10:00N 59°48' E 024°37'714.7
2018-Sep-13 09:30N 59°50' E 024°51'714.5
2018-Sep-13 09:03N 59°51' E 025°04'114.6
2018-Sep-13 09:00N 59°51' E 025°05'714.5
2018-Sep-13 08:30N 59°52' E 025°19'714.5
2018-Sep-13 08:03N 59°54' E 025°32'114.6
2018-Sep-13 08:00N 59°54' E 025°34'714.7
2018-Sep-13 07:30N 59°55' E 025°48'1214.9
2018-Sep-13 06:41N 59°59' E 026°12'315.1
2018-Sep-13 06:29N 59°60' E 026°17'614.2
2018-Sep-13 06:03N 60°01' E 026°29'114.6
2018-Sep-13 06:00N 60°01' E 026°31'815.3
2018-Sep-13 05:29N 60°00' E 026°47'817.6
2018-Sep-13 05:01N 59°59' E 027°03'0 0.5
2018-Sep-13 04:57N 59°59' E 027°03'715.1
2018-Sep-13 04:30N 60°03' E 027°15'714.6
2018-Sep-13 04:03N 60°06' E 027°26'114.7
2018-Sep-13 04:00N 60°07' E 027°27'714.4
2018-Sep-13 03:30N 60°10' E 027°40'713.8
2018-Sep-13 03:02N 60°11' E 027°53'115.8
2018-Sep-13 02:59N 60°11' E 027°54'714.4
2018-Sep-13 02:29N 60°09' E 028°08'713.9
2018-Sep-13 02:00N 60°06' E 028°21'612.2
2018-Sep-13 01:30N 60°03' E 028°31'715.0
2018-Sep-13 01:03N 60°03' E 028°44'115.4
2018-Sep-13 01:00N 60°03' E 028°46'714.7
2018-Sep-13 00:30N 60°02' E 029°01'714.7
2018-Sep-13 00:03N 60°02' E 029°14'114.7
2018-Sep-13 00:00N 60°02' E 029°15'714.5
2018-Sep-12 23:30N 60°02' E 029°30'511.2
2018-Sep-12 23:02N 59°60' E 029°40'0 9.4
2018-Sep-12 23:00N 59°60' E 029°40'4 8.2
2018-Sep-12 22:30N 59°58' E 029°48'510.5
2018-Sep-12 22:03N 59°56' E 029°56'010.8
2018-Sep-12 22:00N 59°56' E 029°57'510.8
2018-Sep-12 21:30N 59°54' E 030°07'3 5.2
2018-Sep-12 21:01N 59°53' E 030°12'010.1
2018-Sep-12 21:00N 59°53' E 030°12'0 0.2
2018-Sep-12 19:52N 59°52' E 030°12'0 0.0
2018-Sep-12 18:40N 59°52' E 030°12'0 0.0
2018-Sep-12 18:25N 59°52' E 030°12'0 0.0
2018-Sep-12 18:01N 59°52' E 030°12'0 0.0
2018-Sep-12 17:52N 59°52' E 030°12'0 0.0
2018-Sep-12 17:19N 59°52' E 030°12'0 0.0
2018-Sep-12 16:52N 59°52' E 030°12'0 0.0
2018-Sep-12 16:28N 59°52' E 030°12'0 0.0
2018-Sep-12 16:01N 59°52' E 030°12'0 0.1
2018-Sep-12 15:58N 59°52' E 030°12'0 0.0
2018-Sep-12 15:28N 59°52' E 030°12'0 0.0
2018-Sep-12 14:58N 59°52' E 030°12'0 0.0
2018-Sep-12 14:28N 59°52' E 030°12'0 0.0
2018-Sep-12 13:58N 59°52' E 030°12'0 0.0
2018-Sep-12 13:28N 59°52' E 030°12'0 0.0
2018-Sep-12 12:49N 59°52' E 030°12'0 0.0
2018-Sep-12 12:28N 59°52' E 030°12'0 0.0
2018-Sep-12 11:58N 59°52' E 030°12'0 0.0
2018-Sep-12 10:40N 59°52' E 030°12'0 0.0
2018-Sep-12 10:28N 59°52' E 030°12'0 0.0
2018-Sep-12 09:13N 59°52' E 030°12'0 0.0
2018-Sep-12 08:43N 59°52' E 030°12'0 0.0
2018-Sep-12 08:29N 59°52' E 030°12'0 0.0
2018-Sep-12 07:49N 59°52' E 030°12'0 0.0
2018-Sep-12 07:28N 59°52' E 030°12'0 0.0
2018-Sep-12 06:52N 59°52' E 030°12'0 0.0
2018-Sep-12 06:22N 59°52' E 030°12'0 0.0
2018-Sep-12 05:58N 59°52' E 030°12'0 0.0
2018-Sep-12 05:28N 59°52' E 030°12'0 0.0
2018-Sep-12 05:01N 59°52' E 030°12'0 0.1
2018-Sep-12 04:58N 59°52' E 030°12'0 0.0
2018-Sep-12 04:25N 59°52' E 030°12'0 0.0
2018-Sep-12 04:01N 59°52' E 030°12'0 0.1
2018-Sep-12 03:58N 59°52' E 030°12'0 0.0
2018-Sep-12 03:28N 59°52' E 030°12'0 0.0
2018-Sep-12 02:55N 59°52' E 030°12'0 0.0
2018-Sep-12 02:28N 59°52' E 030°12'0 0.0
2018-Sep-12 01:58N 59°52' E 030°12'0 0.0
2018-Sep-12 01:28N 59°52' E 030°12'0 0.0
2018-Sep-12 00:55N 59°52' E 030°12'0 0.0
2018-Sep-12 00:28N 59°52' E 030°12'0 0.0
2018-Sep-12 00:01N 59°52' E 030°12'0 0.0
2018-Sep-11 23:49N 59°52' E 030°12'0 0.0
2018-Sep-11 23:28N 59°52' E 030°12'0 0.0
2018-Sep-11 23:01N 59°52' E 030°12'0 0.2
2018-Sep-11 22:58N 59°52' E 030°12'0 0.0
2018-Sep-11 22:28N 59°52' E 030°12'0 0.0
2018-Sep-11 22:01N 59°52' E 030°12'0 0.1
2018-Sep-11 21:58N 59°52' E 030°12'0 0.0
2018-Sep-11 20:01N 59°52' E 030°12'0 0.0
2018-Sep-11 19:49N 59°52' E 030°12'0 0.0
2018-Sep-11 19:22N 59°52' E 030°12'0 0.0
2018-Sep-11 18:50N 59°52' E 030°12'0 0.0
2018-Sep-11 18:16N 59°52' E 030°12'0 0.0
2018-Sep-11 17:52N 59°52' E 030°12'0 0.0
2018-Sep-11 17:28N 59°52' E 030°12'0 0.0
2018-Sep-11 16:58N 59°52' E 030°12'0 0.0
2018-Sep-11 16:25N 59°52' E 030°12'0 0.0
2018-Sep-11 16:01N 59°52' E 030°12'0 0.0
2018-Sep-11 15:58N 59°52' E 030°12'0 0.0
2018-Sep-11 15:25N 59°52' E 030°12'0 0.0
2018-Sep-11 15:01N 59°52' E 030°12'0 0.1
2018-Sep-11 14:58N 59°52' E 030°12'0 0.0
2018-Sep-11 14:28N 59°52' E 030°12'2 0.1
2018-Sep-11 03:24N 59°53' E 030°10'2 5.8
2018-Sep-11 03:03N 59°54' E 030°06'0 6.3
2018-Sep-11 03:00N 59°54' E 030°05'4 8.7
2018-Sep-11 02:30N 59°56' E 029°57'  

Dump ship's entire track history